Historique des mesures à Cassis (13260), France
Quotidien Résumé Octobre 7, 2018 Unités:  Métrique    US   Métrique/US
« Précédent (Jour)
Suivant (Jour) »
Quotidien Hebdomadaire Mensuel Annuel Période au choix
  Maximum: Minimum: Moyenne:
Température: TemperatureC °C 13.9 °C 17 °C
Point de rosée: DewpointC °C 11.4 °C 12.5 °C
Humidité: Humidity % 60 % 71 %
Vitesse du vent: 0 km/h 0 km/h 8.7 km/h
Rafales: 0 km/h - -
Vent:- - SSW
Pression: PressurehPa hPa 1007.0 hPa -
Précipitations: 52.3 mm    
Historical Graphs
 
 
Mesures pour : Octobre 7, 2018
Heure Temperature Point de rosée Pression Vent Vitesse du vent Rafales Humidité Pluie (par heure) Conditions
TemperatureC °C DewpointC °C PressurehPa hPa Calm     Humidity % HourlyPrecipMM mm SoftwareType W/m2
00:10 20.1 °C 15.1 °C 1010.7 hPa Calm   9.3 km/h 73 % 0.0 mm open2300-1.11 W/m2
01:10 19.8 °C 15.0 °C 1010.1 hPa Calm   1.8 km/h 74 % 0.0 mm open2300-1.11 W/m2
02:10 19.6 °C 14.6 °C 1009.4 hPa Calm     73 % 0.0 mm open2300-1.11 W/m2
03:10 19.2 °C 14.4 °C 1009.7 hPa NE 5.8 km/h 5.8 km/h 74 % 0.0 mm open2300-1.11 W/m2
04:10 18.7 °C 14.6 °C 1008.3 hPa SE 3.5 km/h 3.5 km/h 77 % 0.0 mm open2300-1.11 W/m2
05:10 18.2 °C 14.5 °C 1007.0 hPa SE 1.8 km/h 9.8 km/h 79 % 1.0 mm open2300-1.11 W/m2
06:10 17.9 °C 14.6 °C 1007.3 hPa ESE 5.8 km/h 5.8 km/h 81 % 2.5 mm open2300-1.11 W/m2
07:10 15.4 °C 13.1 °C 1008.1 hPa North 18.5 km/h 18.5 km/h 86 % 47.2 mm open2300-1.11 W/m2
08:10 13.9 °C 11.6 °C 1008.7 hPa North 15.1 km/h 46.3 km/h 86 % 1.0 mm open2300-1.11 W/m2
09:10 13.9 °C 11.6 °C 1008.2 hPa North 5.8 km/h 9.8 km/h 86 % 0.5 mm open2300-1.11 W/m2
10:10 14.6 °C 12.1 °C 1009.0 hPa NNW 4 km/h 16.3 km/h 85 % 0.0 mm open2300-1.11 W/m2
11:10 15.6 °C 12.7 °C 1009.7 hPa WNW 24.3 km/h 24.3 km/h 83 % 0.0 mm open2300-1.11 W/m2
12:10 16.6 °C 12.7 °C 1009.7 hPa NNW 8.7 km/h 8.7 km/h 78 % 0.0 mm open2300-1.11 W/m2
13:10 17.4 °C 12.9 °C 1009.4 hPa WNW 15.6 km/h 24.9 km/h 75 % 0.0 mm open2300-1.11 W/m2
14:10 18.1 °C 13.0 °C 1009.5 hPa WNW 27.8 km/h 27.8 km/h 72 % 0.0 mm open2300-1.11 W/m2
15:10 18.1 °C 12.8 °C 1009.4 hPa WNW 31.9 km/h 41.2 km/h 71 % 0.0 mm open2300-1.11 W/m2
16:10 19.4 °C 13.1 °C 1009.5 hPa West 17.4 km/h 17.4 km/h 67 % 0.0 mm open2300-1.11 W/m2
17:10 19.9 °C 13.3 °C 1009.5 hPa North 4 km/h 4 km/h 66 % 0.0 mm open2300-1.11 W/m2
18:10 20.1 °C 12.1 °C 1009.7 hPa NNW 7.6 km/h 19.2 km/h 60 % 0.0 mm open2300-1.11 W/m2
19:10 19.1 °C 11.4 °C 1009.8 hPa NNW 4 km/h 9.8 km/h 61 % 0.0 mm open2300-1.11 W/m2
20:10 18.3 °C 11.6 °C 1010.3 hPa NW 4 km/h 7.6 km/h 65 % 0.0 mm open2300-1.11 W/m2
21:10 17.8 °C 11.8 °C 1010.4 hPa NW 3.5 km/h 3.5 km/h 68 % 0.0 mm open2300-1.11 W/m2
22:10 17.3 °C 12.0 °C 1010.5 hPa NW 5.1 km/h 5.1 km/h 71 % 0.0 mm open2300-1.11 W/m2
23:10 16.8 °C 11.5 °C 1010.7 hPa ESE 2.3 km/h 2.3 km/h 71 % 0.0 mm open2300-1.11 W/m2
Observations météo à CASSIS
WU-History script by Weather Underground - 1 mb